Time;durP1;ratioP1;P1;durP2;ratioP2;P2;SDS_P1;SDS_P2;PMS_P1;PMS_P2;Temp;Humidity;BMP_temperature;BMP_pressure;BME280_temperature;BME280_humidity;BME280_pressure;Samples;Min_cycle;Max_cycle;Signal;HPM_P1;HPM_P2
2021/07/12 00:02:11;;;;;;;7.25;4.80;;;;;;;19.50;100.00;100593.62;1749019;81;21023;-44
2021/07/12 00:04:38;;;;;;;7.03;5.20;;;;;;;19.47;100.00;100598.45;1719683;82;21102;-43
2021/07/12 00:07:06;;;;;;;6.55;4.60;;;;;;;19.46;100.00;100603.19;1746672;82;21006;-49
2021/07/12 00:09:32;;;;;;;8.88;4.50;;;;;;;19.44;100.00;100598.55;1747330;82;21026;-47
2021/07/12 00:12:00;;;;;;;6.97;4.97;;;;;;;19.42;100.00;100594.49;1747086;82;21002;-45
2021/07/12 00:14:27;;;;;;;6.42;4.37;;;;;;;19.42;100.00;100594.49;1746884;82;21019;-48
2021/07/12 00:16:55;;;;;;;6.87;4.97;;;;;;;19.40;100.00;100596.78;1747035;82;21067;-43
2021/07/12 00:19:22;;;;;;;7.17;4.28;;;;;;;19.39;100.00;100598.75;1746844;82;21098;-48
2021/07/12 00:21:50;;;;;;;6.55;4.70;;;;;;;19.39;100.00;100592.40;1747177;82;21016;-45
2021/07/12 00:24:19;;;;;;;7.12;4.20;;;;;;;19.38;100.00;100587.41;1733378;82;21027;-48
2021/07/12 00:26:46;;;;;;;7.40;4.37;;;;;;;19.38;100.00;100583.83;1740197;81;21027;-44
2021/07/12 00:29:14;;;;;;;7.28;4.62;;;;;;;19.37;100.00;100582.22;1747116;82;21090;-48
2021/07/12 00:31:42;;;;;;;6.40;4.35;;;;;;;19.36;100.00;100585.54;1740318;82;21039;-46
2021/07/12 00:34:09;;;;;;;7.03;4.55;;;;;;;19.36;100.00;100586.12;1696681;83;21460;-44
2021/07/12 00:36:36;;;;;;;9.63;4.85;;;;;;;19.34;100.00;100587.28;1716162;82;21079;-45
2021/07/12 00:39:04;;;;;;;6.08;4.12;;;;;;;19.34;100.00;100588.66;1693926;83;21048;-44
2021/07/12 00:41:32;;;;;;;6.08;4.05;;;;;;;19.34;100.00;100578.97;1717992;82;21042;-45
2021/07/12 00:43:59;;;;;;;6.17;4.40;;;;;;;19.34;100.00;100580.35;1696550;84;20979;-44
2021/07/12 00:46:26;;;;;;;7.42;4.95;;;;;;;19.33;100.00;100574.55;1716053;82;20974;-48
2021/07/12 00:48:52;;;;;;;7.10;4.87;;;;;;;19.34;100.00;100578.16;1696363;83;21558;-49
2021/07/12 00:51:18;;;;;;;6.85;5.17;;;;;;;19.33;100.00;100574.55;1716454;82;21076;-44
2021/07/12 00:53:45;;;;;;;6.25;4.45;;;;;;;19.33;100.00;100579.30;1740455;82;21015;-44
2021/07/12 00:56:13;;;;;;;7.97;4.72;;;;;;;19.32;100.00;100581.25;1739854;81;21009;-47
2021/07/12 00:58:42;;;;;;;6.97;4.35;;;;;;;19.32;100.00;100578.48;1711352;83;21451;-45
2021/07/12 01:01:08;;;;;;;8.50;4.45;;;;;;;19.32;100.00;100579.06;1721126;82;21596;-44
2021/07/12 01:03:35;;;;;;;5.62;4.10;;;;;;;19.32;100.00;100584.02;1740578;81;21571;-47
2021/07/12 01:06:04;;;;;;;7.30;5.33;;;;;;;19.31;100.00;100585.19;1740259;82;21036;-43
2021/07/12 01:08:33;;;;;;;5.47;3.58;;;;;;;19.30;100.00;100585.51;1711720;82;20943;-47
2021/07/12 01:11:42;;;;;;;7.90;4.92;;;;;;;19.26;100.00;100590.92;1739999;82;21070;-47
2021/07/12 01:14:50;;;;;;;7.20;4.58;;;;;;;19.21;100.00;100584.73;1726955;81;21095;-47
2021/07/12 01:17:59;;;;;;;7.95;4.60;;;;;;;19.17;100.00;100587.96;1704789;83;21563;-44
2021/07/12 01:21:02;;;;;;;6.80;4.72;;;;;;;19.11;100.00;100587.31;1694842;84;21384;-48
2021/07/12 01:24:11;;;;;;;6.40;4.20;;;;;;;19.05;100.00;100591.43;1694471;84;21073;-48
2021/07/12 01:27:09;;;;;;;6.42;4.60;;;;;;;19.00;100.00;100586.08;1696452;84;21001;-47
2021/07/12 01:30:11;;;;;;;8.13;5.17;;;;;;;18.96;100.00;100591.45;1681910;83;20997;-47
2021/07/12 01:33:03;;;;;;;8.78;5.08;;;;;;;18.94;100.00;100590.16;1704021;84;21020;-47
2021/07/12 01:35:55;;;;;;;5.65;4.47;;;;;;;18.90;100.00;100599.72;1694789;84;21017;-45
2021/07/12 01:38:58;;;;;;;;;;;;;;;18.84;100.00;100601.03;1696813;84;21498;-44
2021/07/12 01:41:40;;;;;;;6.87;4.90;;;;;;;18.76;100.00;100604.66;1703741;83;20197;-44
2021/07/12 01:45:02;;;;;;;6.60;4.40;;;;;;;18.68;100.00;100598.78;1737948;82;20976;-48
2021/07/12 01:48:02;;;;;;;7.08;4.60;;;;;;;18.64;100.00;100598.38;1734554;80;21059;-44
2021/07/12 01:50:54;;;;;;;7.10;4.85;;;;;;;18.59;100.00;100597.18;1696209;82;21101;-45
2021/07/12 01:53:55;;;;;;;7.70;5.25;;;;;;;18.57;100.00;100598.08;1718340;81;21130;-44
2021/07/12 01:56:46;;;;;;;7.35;4.53;;;;;;;18.56;100.00;100601.42;1722499;82;21077;-48
2021/07/12 01:59:39;;;;;;;7.30;4.05;;;;;;;18.55;100.00;100596.23;1675019;84;20995;-48
2021/07/12 02:02:07;;;;;;;6.65;4.85;;;;;;;18.55;100.00;100603.95;1736968;82;21054;-47
2021/07/12 02:04:35;;;;;;;6.85;5.10;;;;;;;18.55;100.00;100603.95;1699131;84;20991;-47
2021/07/12 02:07:02;;;;;;;6.70;4.37;;;;;;;18.56;100.00;100597.84;1670939;84;21009;-49
2021/07/12 02:09:31;;;;;;;8.40;4.60;;;;;;;18.57;100.00;100593.92;1699013;84;21031;-47
2021/07/12 02:11:58;;;;;;;8.25;5.50;;;;;;;18.58;100.00;100604.67;1683703;84;21523;-47
2021/07/12 02:14:26;;;;;;;8.18;5.28;;;;;;;18.60;100.00;100604.36;1775267;80;21035;-48
2021/07/12 02:16:53;;;;;;;8.50;4.80;;;;;;;18.59;100.00;100606.86;1705348;83;21012;-48
2021/07/12 02:19:20;;;;;;;7.33;4.35;;;;;;;18.56;100.00;100605.57;1732213;82;21089;-48
2021/07/12 02:21:50;;;;;;;7.28;5.00;;;;;;;18.57;100.00;100607.76;1727996;81;21479;-48
2021/07/12 02:24:21;;;;;;;7.90;5.03;;;;;;;18.57;100.00;100600.30;1728136;83;21300;-45
2021/07/12 02:26:49;;;;;;;9.68;4.87;;;;;;;18.58;100.00;100602.48;1727641;81;21434;-47
2021/07/12 02:29:17;;;;;;;7.35;5.40;;;;;;;18.59;100.00;100606.28;1727469;82;21057;-47
2021/07/12 02:31:43;;;;;;;6.20;4.53;;;;;;;18.61;100.00;100608.16;1674954;83;21029;-47
2021/07/12 02:34:10;;;;;;;8.10;4.40;;;;;;;18.65;100.00;100614.67;1701085;82;21453;-48
2021/07/12 02:36:39;;;;;;;7.92;5.12;;;;;;;18.68;100.00;100609.05;1747847;80;21015;-44
2021/07/12 02:39:07;;;;;;;9.00;4.75;;;;;;;18.73;100.00;100609.45;1652369;84;21047;-44
2021/07/12 02:41:34;;;;;;;7.42;4.47;;;;;;;18.77;100.00;100609.87;1737945;82;21487;-45
2021/07/12 02:44:02;;;;;;;7.70;5.22;;;;;;;18.83;100.00;100616.84;1708064;82;21497;-47
2021/07/12 02:46:28;;;;;;;6.25;4.65;;;;;;;18.88;100.00;100608.34;1666298;84;21037;-45
2021/07/12 02:48:55;;;;;;;11.35;5.53;;;;;;;18.92;100.00;100605.74;1700235;82;21021;-45
2021/07/12 02:51:30;;;;;;;8.18;5.62;;;;;;;18.98;100.00;100604.40;1675368;83;21503;-44
2021/07/12 02:54:01;;;;;;;8.08;5.12;;;;;;;19.02;100.00;100612.88;1666934;86;21001;-44
2021/07/12 02:56:27;;;;;;;10.82;5.70;;;;;;;19.08;100.00;100614.30;1716117;82;21019;-47
2021/07/12 02:58:54;;;;;;;6.87;5.05;;;;;;;19.13;100.00;100611.34;1697960;83;21011;-44
2021/07/12 03:01:21;;;;;;;9.08;5.80;;;;;;;19.20;100.00;100614.41;1695372;83;21540;-44
2021/07/12 03:03:48;;;;;;;8.33;5.45;;;;;;;19.26;100.00;100602.00;1709585;83;21015;-47
2021/07/12 03:06:16;;;;;;;10.03;6.28;;;;;;;19.33;100.00;100605.61;1762992;80;20980;-47
2021/07/12 03:08:54;;;;;;;8.10;5.00;;;;;;;19.41;100.00;100607.54;1748896;81;21003;-48
2021/07/12 03:11:20;;;;;;;7.08;5.28;;;;;;;19.49;100.00;100601.70;1676394;83;21021;-47
2021/07/12 03:14:14;;;;;;;8.00;5.55;;;;;;;19.56;100.00;100597.83;1648509;83;21009;-43
2021/07/12 03:16:42;;;;;;;11.40;5.42;;;;;;;19.64;100.00;100594.76;1746935;82;21027;-47
2021/07/12 03:19:12;;;;;;;10.48;6.00;;;;;;;19.72;100.00;100587.78;1728583;82;21051;-44
2021/07/12 03:21:41;;;;;;;10.65;6.67;;;;;;;19.82;100.00;100587.14;1702352;83;21464;-44
2021/07/12 03:24:08;;;;;;;12.65;6.42;;;;;;;19.92;100.00;100583.95;1757959;81;20991;-47
2021/07/12 03:26:44;;;;;;;9.53;5.67;;;;;;;20.01;100.00;100577.77;1747185;82;21042;-47
2021/07/12 03:29:12;;;;;;;8.63;5.70;;;;;;;20.12;100.00;100585.08;1718488;82;21082;-47
2021/07/12 03:31:40;;;;;;;11.28;6.70;;;;;;;20.23;100.00;100575.75;1697026;83;20967;-48
2021/07/12 03:34:09;;;;;;;9.60;6.00;;;;;;;20.34;100.00;100575.56;1724243;81;21063;-47
2021/07/12 03:36:37;;;;;;;7.20;5.17;;;;;;;20.44;100.00;100566.80;1696421;84;20987;-44
2021/07/12 03:39:04;;;;;;;8.03;5.15;;;;;;;20.55;100.00;100568.03;1703563;82;21076;-45
2021/07/12 03:41:34;;;;;;;10.68;4.90;;;;;;;20.66;100.00;100567.58;1739413;82;21043;-47
2021/07/12 03:44:00;;;;;;;6.12;5.20;;;;;;;20.75;100.00;100569.09;1696519;84;21486;-47
2021/07/12 03:46:27;;;;;;;7.90;4.95;;;;;;;20.86;100.00;100572.80;1716023;82;21038;-47
2021/07/12 03:48:55;;;;;;;7.72;4.40;;;;;;;20.97;100.00;100567.84;1693787;84;21492;-44
2021/07/12 03:51:27;;;;;;;6.28;4.90;;;;;;;21.08;100.00;100568.77;1715237;82;21395;-44
2021/07/12 03:53:55;;;;;;;6.20;5.08;;;;;;;21.19;100.00;100572.68;1710738;83;21055;-47
2021/07/12 03:56:23;;;;;;;7.37;4.75;;;;;;;21.31;100.00;100564.34;1710956;82;21036;-44
2021/07/12 03:58:49;;;;;;;8.00;5.20;;;;;;;21.42;100.00;100564.12;1694933;84;21061;-45
2021/07/12 04:01:24;;;;;;;7.05;4.90;;;;;;;21.53;100.00;100558.08;1704128;83;21555;-47
2021/07/12 04:03:48;;;;;;;7.95;5.08;;;;;;;21.65;100.00;100559.45;1700431;83;20929;-47
2021/07/12 04:06:14;;;;;;;6.40;4.87;;;;;;;21.77;100.00;100560.80;1692990;84;21025;-47
2021/07/12 04:08:41;;;;;;;7.67;4.90;;;;;;;21.93;100.00;100557.27;1669493;84;21002;-44
2021/07/12 04:11:09;;;;;;;7.70;5.05;;;;;;;22.06;99.77;100558.84;1694352;84;21014;-47
2021/07/12 04:13:35;;;;;;;5.55;4.33;;;;;;;22.19;99.37;100560.40;1704898;84;21072;-45
2021/07/12 04:16:04;;;;;;;5.67;4.50;;;;;;;22.34;99.14;100571.38;1697753;84;21029;-47
2021/07/12 04:18:30;;;;;;;7.15;4.95;;;;;;;22.46;98.54;100575.48;1696787;84;21084;-44
2021/07/12 04:20:57;;;;;;;8.03;4.75;;;;;;;22.57;98.21;100570.18;1704221;84;21066;-47
2021/07/12 04:23:25;;;;;;;6.22;4.60;;;;;;;22.67;97.90;100576.61;1704818;84;21005;-48
2021/07/12 04:25:51;;;;;;;7.62;4.62;;;;;;;22.78;97.34;100570.53;1704528;84;21542;-45
2021/07/12 04:28:17;;;;;;;4.92;4.17;;;;;;;22.86;96.96;100576.50;1702766;84;21017;-44
2021/07/12 04:30:44;;;;;;;7.97;5.00;;;;;;;22.95;96.57;100574.34;1686956;84;21735;-44
2021/07/12 04:33:10;;;;;;;6.08;4.42;;;;;;;23.02;96.58;100581.52;1689965;83;21021;-47
2021/07/12 04:35:37;;;;;;;5.97;4.47;;;;;;;23.10;95.56;100583.89;1679967;84;21010;-44
2021/07/12 04:38:03;;;;;;;6.05;4.03;;;;;;;23.15;94.93;100591.98;1704720;84;21021;-47
2021/07/12 04:40:30;;;;;;;5.58;4.00;;;;;;;23.25;94.46;100596.19;1691143;84;21156;-47
2021/07/12 04:42:56;;;;;;;6.95;4.20;;;;;;;23.33;94.09;100591.80;1703705;83;21026;-44
2021/07/12 04:45:27;;;;;;;6.60;4.55;;;;;;;23.42;93.38;100589.39;1698619;83;21025;-47
2021/07/12 04:47:52;;;;;;;5.85;4.00;;;;;;;23.49;92.82;100589.00;1712078;83;21033;-47
2021/07/12 04:50:18;;;;;;;6.33;4.30;;;;;;;23.56;92.10;100586.34;1718220;82;20989;-42
2021/07/12 04:52:44;;;;;;;6.33;4.42;;;;;;;23.64;91.72;100590.69;1735357;80;21002;-51
2021/07/12 04:55:11;;;;;;;5.47;4.28;;;;;;;23.75;90.98;100586.99;1762674;80;20989;-51
2021/07/12 04:57:38;;;;;;;4.87;4.20;;;;;;;23.87;90.04;100580.47;1753697;81;21007;-45
2021/07/12 05:00:06;;;;;;;7.50;4.83;;;;;;;24.00;89.48;100578.34;1741977;81;21003;-51
2021/07/12 05:02:33;;;;;;;5.15;4.10;;;;;;;24.11;87.57;100579.37;1763256;80;21024;-51
2021/07/12 05:05:00;;;;;;;6.50;4.60;;;;;;;24.24;87.63;100577.23;1715394;83;21581;-45
2021/07/12 05:07:27;;;;;;;7.30;3.90;;;;;;;24.38;87.14;100575.28;1761240;80;20996;-45
2021/07/12 05:09:54;;;;;;;6.22;4.35;;;;;;;24.54;86.21;100582.20;1746065;82;21064;-45
2021/07/12 05:12:21;;;;;;;8.18;4.95;;;;;;;24.64;85.15;100592.77;1766501;79;21004;-51
2021/07/12 05:14:47;;;;;;;5.97;4.40;;;;;;;24.73;82.47;100598.92;1732168;82;20998;-45
2021/07/12 05:17:14;;;;;;;9.43;5.47;;;;;;;24.83;81.96;100609.47;1753838;80;21502;-44
2021/07/12 05:19:40;;;;;;;6.35;4.35;;;;;;;24.88;80.70;100603.57;1761000;80;21002;-47
2021/07/12 05:22:07;;;;;;;7.62;4.78;;;;;;;24.95;80.61;100602.06;1765191;79;21032;-51
2021/07/12 05:24:33;;;;;;;6.75;4.50;;;;;;;25.00;80.41;100598.95;1735028;82;20964;-51
2021/07/12 05:27:00;;;;;;;7.22;4.60;;;;;;;25.05;79.37;100604.25;1760448;80;20998;-47
2021/07/12 05:29:27;;;;;;;7.08;4.45;;;;;;;25.10;79.88;100598.34;1760831;80;20998;-51
2021/07/12 05:31:53;;;;;;;6.12;4.42;;;;;;;25.17;79.54;100604.05;1776487;79;20903;-51
2021/07/12 05:34:20;;;;;;;5.65;4.37;;;;;;;25.27;79.53;100599.25;1739259;81;21488;-44
2021/07/12 05:36:46;;;;;;;6.70;4.92;;;;;;;25.41;78.82;100596.44;1702658;84;21035;-51
2021/07/12 05:39:14;;;;;;;6.53;4.67;;;;;;;25.53;77.95;100592.02;1735435;82;21641;-45
2021/07/12 05:41:41;;;;;;;5.83;4.45;;;;;;;25.66;77.67;100598.19;1760003;80;21471;-51
2021/07/12 05:44:07;;;;;;;6.97;4.53;;;;;;;25.82;76.37;100591.83;1747462;81;21042;-44
2021/07/12 05:46:34;;;;;;;5.10;3.87;;;;;;;25.99;76.35;100592.45;1746137;81;21019;-45
2021/07/12 05:49:00;;;;;;;5.17;4.15;;;;;;;26.16;76.77;100595.48;1720713;81;21018;-45
2021/07/12 05:51:27;;;;;;;8.10;5.67;;;;;;;26.33;75.54;100597.45;1760531;81;21010;-51
2021/07/12 05:53:53;;;;;;;7.33;4.70;;;;;;;26.40;74.47;100608.73;1752698;81;21663;-52
2021/07/12 05:56:21;;;;;;;5.58;4.15;;;;;;;26.34;73.48;100620.89;1741660;81;21372;-46
2021/07/12 05:58:47;;;;;;;6.10;4.17;;;;;;;26.21;73.08;100627.12;1737924;81;21043;-51
2021/07/12 06:01:16;;;;;;;7.10;4.60;;;;;;;25.99;73.74;100632.47;1735145;81;21017;-51
2021/07/12 06:03:43;;;;;;;7.53;4.60;;;;;;;25.84;74.34;100630.61;1768445;80;21018;-45
2021/07/12 06:06:09;;;;;;;5.05;3.72;;;;;;;25.78;75.62;100632.14;1768931;80;21547;-51
2021/07/12 06:08:35;;;;;;;7.17;4.72;;;;;;;25.84;75.92;100633.41;1765378;80;21006;-46
2021/07/12 06:11:01;;;;;;;8.03;5.10;;;;;;;25.89;75.65;100631.14;1734548;80;21146;-51
2021/07/12 06:13:28;;;;;;;5.37;4.40;;;;;;;25.92;75.75;100644.37;1695408;84;21389;-51
2021/07/12 06:15:54;;;;;;;6.25;4.80;;;;;;;25.93;75.86;100629.77;1717330;82;21517;-45
2021/07/12 06:18:21;;;;;;;8.80;5.20;;;;;;;25.96;75.61;100622.01;1682845;83;21003;-48
2021/07/12 06:20:47;;;;;;;6.35;4.45;;;;;;;26.05;76.07;100628.13;1753024;80;21102;-44
2021/07/12 06:23:14;;;;;;;5.83;4.67;;;;;;;26.26;75.48;100615.57;1746265;82;21464;-51
2021/07/12 06:25:40;;;;;;;9.05;5.55;;;;;;;26.54;76.20;100615.93;1746837;82;21007;-51
2021/07/12 06:28:08;;;;;;;6.45;4.83;;;;;;;26.89;73.65;100611.05;1746586;82;21022;-45
2021/07/12 06:30:35;;;;;;;6.08;4.62;;;;;;;27.19;72.26;100610.93;1746960;82;21054;-47
2021/07/12 06:33:03;;;;;;;6.15;4.55;;;;;;;27.34;72.29;100604.22;1718926;82;20979;-51
2021/07/12 06:35:29;;;;;;;5.37;4.60;;;;;;;27.56;71.48;100602.97;1696652;83;21023;-52
2021/07/12 06:37:56;;;;;;;7.03;4.67;;;;;;;27.75;70.41;100615.31;1715714;83;20946;-45
2021/07/12 06:40:22;;;;;;;7.50;5.00;;;;;;;27.86;69.60;100629.42;1695801;84;21055;-51
2021/07/12 06:42:50;;;;;;;6.70;4.28;;;;;;;27.94;69.51;100626.05;1720684;82;21441;-46
2021/07/12 06:45:18;;;;;;;7.15;4.78;;;;;;;28.06;70.16;100615.88;1697734;83;20960;-44
2021/07/12 06:47:46;;;;;;;8.10;4.55;;;;;;;28.33;70.55;100622.59;1715950;82;21023;-52
2021/07/12 06:50:14;;;;;;;8.05;5.47;;;;;;;28.60;69.55;100617.47;1696553;84;21043;-44
2021/07/12 06:52:40;;;;;;;8.38;4.97;;;;;;;28.70;67.28;100611.06;1732542;81;21058;-52
2021/07/12 06:55:08;;;;;;;7.20;4.35;;;;;;;28.72;66.32;100615.08;1738977;82;21563;-45
2021/07/12 06:57:34;;;;;;;7.58;5.10;;;;;;;28.73;66.51;100606.87;1738984;81;21026;-47
2021/07/12 07:00:00;;;;;;;7.67;4.72;;;;;;;28.76;66.25;100603.86;1739863;82;20995;-45
2021/07/12 07:02:27;;;;;;;8.03;4.85;;;;;;;28.74;65.36;100609.07;1727013;81;21073;-45
2021/07/12 07:04:55;;;;;;;6.85;4.65;;;;;;;28.58;64.96;100610.84;1751051;80;21026;-47
2021/07/12 07:07:22;;;;;;;5.83;4.45;;;;;;;28.36;65.77;100607.75;1711858;82;21031;-45
2021/07/12 07:09:49;;;;;;;5.75;4.62;;;;;;;28.22;66.05;100619.16;1694817;84;21040;-51
2021/07/12 07:12:16;;;;;;;7.12;4.90;;;;;;;28.07;66.41;100621.71;1700552;83;21015;-45
2021/07/12 07:14:45;;;;;;;8.65;5.00;;;;;;;27.99;67.13;100622.28;1707555;83;21497;-51
2021/07/12 07:17:11;;;;;;;7.22;5.03;;;;;;;28.00;67.85;100624.48;1704156;84;21081;-51
2021/07/12 07:19:38;;;;;;;10.50;5.17;;;;;;;28.01;67.33;100633.11;1695033;84;21006;-51
2021/07/12 07:22:04;;;;;;;8.23;4.97;;;;;;;27.97;67.28;100630.90;1703847;84;21029;-47
2021/07/12 07:24:38;;;;;;;6.80;4.95;;;;;;;27.90;67.33;100627.45;1683598;84;21434;-45
2021/07/12 07:27:04;;;;;;;8.53;5.22;;;;;;;27.83;68.16;100636.63;1674578;84;21608;-48
2021/07/12 07:29:31;;;;;;;8.58;5.22;;;;;;;27.81;68.78;100638.99;1689355;84;21062;-45
2021/07/12 07:31:57;;;;;;;6.80;4.87;;;;;;;27.86;69.19;100634.44;1689448;83;21018;-51
2021/07/12 07:34:24;;;;;;;7.33;4.67;;;;;;;28.02;69.40;100638.34;1704716;83;21037;-45
2021/07/12 07:36:52;;;;;;;7.30;4.85;;;;;;;28.11;68.70;100643.58;1694357;83;21057;-51
2021/07/12 07:39:18;;;;;;;7.33;4.55;;;;;;;28.22;69.12;100648.66;1704373;84;21025;-44
2021/07/12 07:41:45;;;;;;;6.55;5.15;;;;;;;28.38;68.84;100646.09;1695888;83;20932;-44
2021/07/12 07:44:14;;;;;;;7.50;5.35;;;;;;;28.56;68.29;100634.34;1704709;84;21483;-51
2021/07/12 07:46:39;;;;;;;7.47;4.40;;;;;;;28.76;66.72;100636.19;1676745;84;21101;-45
2021/07/12 07:49:07;;;;;;;7.92;4.58;;;;;;;28.85;64.60;100631.56;1689308;84;21024;-45
2021/07/12 07:51:37;;;;;;;5.92;4.50;;;;;;;28.85;64.40;100625.94;1679387;84;21099;-45
2021/07/12 07:54:05;;;;;;;8.15;5.00;;;;;;;28.94;65.12;100619.33;1689518;83;21431;-52
2021/07/12 07:56:31;;;;;;;7.10;5.15;;;;;;;29.07;65.16;100620.55;1727800;83;20991;-45
2021/07/12 07:58:58;;;;;;;6.80;4.53;;;;;;;29.10;63.36;100615.52;1726257;81;21401;-51
2021/07/12 08:01:25;;;;;;;6.35;4.40;;;;;;;29.05;63.18;100613.08;1746453;80;21003;-47
2021/07/12 08:03:51;;;;;;;7.67;4.40;;;;;;;29.02;64.58;100614.50;1682906;84;21010;-51
2021/07/12 08:06:17;;;;;;;5.40;4.15;;;;;;;29.06;64.83;100618.95;1754396;79;21035;-45
2021/07/12 08:08:44;;;;;;;8.13;4.20;;;;;;;29.14;64.32;100623.37;1784697;80;20988;-51
2021/07/12 08:11:13;;;;;;;6.80;4.30;;;;;;;29.25;62.10;100621.15;1783772;79;21310;-51
2021/07/12 08:13:39;;;;;;;5.95;4.12;;;;;;;29.42;61.19;100610.47;1747950;81;21007;-45
2021/07/12 08:16:06;;;;;;;5.95;4.15;;;;;;;29.62;61.96;100612.84;1702887;83;21086;-44
2021/07/12 08:18:34;;;;;;;5.17;3.50;;;;;;;29.83;60.90;100624.09;1717917;83;21070;-51
2021/07/12 08:21:03;;;;;;;5.62;4.12;;;;;;;29.90;60.75;100623.27;1720491;80;21410;-45
2021/07/12 08:23:29;;;;;;;5.28;3.92;;;;;;;30.00;59.92;100621.81;1685975;85;20984;-51
2021/07/12 08:25:56;;;;;;;6.75;4.22;;;;;;;29.99;59.64;100622.20;1726763;80;21039;-44
2021/07/12 08:28:25;;;;;;;5.85;4.40;;;;;;;29.99;59.23;100613.14;1727703;83;20957;-51
2021/07/12 08:30:52;;;;;;;6.78;4.22;;;;;;;30.00;58.12;100616.79;1749443;80;21036;-51
2021/07/12 08:33:20;;;;;;;5.65;4.33;;;;;;;29.92;59.87;100613.78;1725173;81;21011;-45
2021/07/12 08:35:46;;;;;;;6.35;4.37;;;;;;;29.88;60.41;100605.36;1703632;83;21586;-51
2021/07/12 08:38:13;;;;;;;5.55;3.92;;;;;;;29.97;59.79;100609.96;1714303;83;21488;-44
2021/07/12 08:40:40;;;;;;;4.72;4.20;;;;;;;30.16;60.77;100600.20;1699707;83;20974;-45
2021/07/12 08:43:06;;;;;;;6.67;4.40;;;;;;;30.21;61.05;100598.97;1746949;82;21070;-46
2021/07/12 08:45:33;;;;;;;6.97;5.10;;;;;;;30.11;59.94;100592.78;1698875;84;21022;-44
2021/07/12 08:48:01;;;;;;;7.22;4.87;;;;;;;29.95;61.10;100596.88;1747563;81;21022;-44
2021/07/12 08:50:28;;;;;;;6.72;4.30;;;;;;;29.89;61.32;100594.89;1699692;83;21013;-51
2021/07/12 08:52:55;;;;;;;5.80;4.67;;;;;;;29.87;62.52;100597.30;1725517;80;20879;-45
2021/07/12 08:55:21;;;;;;;6.62;4.53;;;;;;;29.93;62.14;100600.70;1745094;82;21421;-52
2021/07/12 08:58:07;;;;;;;5.70;4.50;;;;;;;29.90;60.64;100601.53;1716984;82;21038;-52
2021/07/12 09:00:41;;;;;;;5.83;4.03;;;;;;;29.69;60.63;100588.92;1718710;82;21079;-45
2021/07/12 09:03:18;;;;;;;9.13;5.05;;;;;;;29.40;61.71;100596.00;1718611;83;21484;-45
2021/07/12 09:06:10;;;;;;;6.87;4.87;;;;;;;29.32;62.83;100603.65;1721355;80;21048;-45
2021/07/12 09:08:55;;;;;;;5.58;4.30;;;;;;;29.32;62.77;100600.83;1730490;82;21057;-51
2021/07/12 09:11:36;;;;;;;5.58;4.03;;;;;;;29.42;64.04;100605.45;1738966;80;21493;-44
2021/07/12 09:14:11;;;;;;;6.35;4.03;;;;;;;29.56;61.95;100609.04;1760644;80;21063;-46
2021/07/12 09:16:48;;;;;;;5.47;4.25;;;;;;;29.55;60.89;100613.08;1751584;80;20940;-45
2021/07/12 09:19:29;;;;;;;6.30;4.60;;;;;;;29.52;61.11;100613.86;1692070;84;20998;-45
2021/07/12 09:22:13;;;;;;;5.12;3.87;;;;;;;29.55;61.69;100607.45;1707328;81;21078;-45
2021/07/12 09:24:54;;;;;;;5.45;4.30;;;;;;;29.71;60.42;100620.30;1710044;83;20960;-52
2021/07/12 09:27:23;;;;;;;8.58;4.20;;;;;;;29.74;59.34;100615.26;1707986;82;21020;-44
2021/07/12 09:29:52;;;;;;;5.78;4.20;;;;;;;29.76;59.43;100622.09;1702391;83;21023;-45
2021/07/12 09:32:21;;;;;;;5.55;4.17;;;;;;;29.81;59.02;100620.88;1772277;80;21019;-44
2021/07/12 09:34:48;;;;;;;6.20;4.20;;;;;;;29.86;59.05;100616.84;1778080;80;21607;-47
2021/07/12 09:37:17;;;;;;;5.35;4.05;;;;;;;29.91;59.01;100612.98;1740750;80;21016;-51
2021/07/12 09:39:48;;;;;;;6.65;4.40;;;;;;;30.08;59.93;100607.09;1734590;82;21492;-46
2021/07/12 09:42:30;;;;;;;6.97;4.45;;;;;;;30.34;60.16;100610.02;1741103;80;21498;-51
2021/07/12 09:45:05;;;;;;;6.00;3.90;;;;;;;30.58;57.92;100615.90;1746991;82;21082;-51
2021/07/12 09:47:34;;;;;;;6.25;4.35;;;;;;;30.62;57.35;100609.02;1731897;80;21488;-45
2021/07/12 09:50:08;;;;;;;6.80;4.03;;;;;;;30.63;55.06;100607.00;1700595;83;21051;-48
2021/07/12 09:53:04;;;;;;;5.40;4.20;;;;;;;30.57;56.72;100615.72;1742897;80;20984;-46
2021/07/12 09:55:41;;;;;;;6.12;4.28;;;;;;;30.49;59.20;100614.14;1719038;82;21023;-44
2021/07/12 09:58:15;;;;;;;6.47;4.40;;;;;;;30.42;57.53;100615.80;1742066;81;21019;-45
2021/07/12 10:00:52;;;;;;;4.92;3.70;;;;;;;30.34;58.05;100611.42;1748818;80;21398;-51
2021/07/12 10:03:20;;;;;;;6.67;4.03;;;;;;;30.28;58.07;100608.83;1740246;82;21044;-45
2021/07/12 10:05:47;;;;;;;5.15;3.47;;;;;;;30.27;56.88;100603.00;1739600;80;21165;-51
2021/07/12 10:08:14;;;;;;;4.28;3.20;;;;;;;30.23;56.86;100601.57;1721673;82;21010;-51
2021/07/12 10:10:40;;;;;;;6.33;4.37;;;;;;;30.24;57.16;100602.36;1754585;80;21445;-45
2021/07/12 10:13:07;;;;;;;5.20;3.60;;;;;;;30.28;56.28;100597.55;1768199;80;21078;-45
2021/07/12 10:15:34;;;;;;;5.28;3.27;;;;;;;30.28;56.10;100589.71;1740124;80;20991;-51
2021/07/12 10:18:01;;;;;;;4.92;2.85;;;;;;;30.32;57.07;100589.89;1741376;82;21036;-51
2021/07/12 10:20:27;;;;;;;4.03;2.72;;;;;;;30.38;54.77;100586.02;1741702;80;21047;-47
2021/07/12 10:22:58;;;;;;;3.65;2.77;;;;;;;30.35;53.92;100580.60;1716507;82;21027;-45
2021/07/12 10:25:27;;;;;;;3.98;2.52;;;;;;;30.31;53.61;100579.81;1710803;80;21560;-45
2021/07/12 10:28:00;;;;;;;4.75;2.70;;;;;;;30.27;52.81;100562.72;1719042;82;21062;-51
2021/07/12 10:30:42;;;;;;;3.83;2.62;;;;;;;30.21;53.17;100560.92;1716337;80;21039;-45
2021/07/12 10:33:11;;;;;;;4.50;2.77;;;;;;;30.15;51.73;100556.95;1738160;82;21042;-45
2021/07/12 10:35:49;;;;;;;3.15;2.80;;;;;;;30.09;53.00;100550.13;1728173;80;21016;-51
2021/07/12 10:38:20;;;;;;;4.40;2.77;;;;;;;30.15;53.21;100545.67;1742012;82;21414;-51
2021/07/12 10:40:54;;;;;;;4.22;2.92;;;;;;;30.36;54.67;100539.91;1738991;80;21080;-44
2021/07/12 10:43:45;;;;;;;3.30;2.70;;;;;;;30.57;52.08;100531.92;1718432;82;20931;-45
2021/07/12 10:46:30;;;;;;;4.28;2.67;;;;;;;30.72;51.99;100528.38;1707209;83;21037;-52
2021/07/12 10:49:05;;;;;;;4.25;2.42;;;;;;;30.93;51.66;100531.64;1693578;83;21027;-51
2021/07/12 10:51:37;;;;;;;4.65;2.90;;;;;;;31.04;50.07;100520.27;1708425;81;21461;-51
2021/07/12 10:54:11;;;;;;;3.22;2.77;;;;;;;31.09;48.28;100529.69;1714728;83;20951;-45
2021/07/12 10:56:57;;;;;;;3.33;2.70;;;;;;;31.00;48.76;100531.57;1743933;80;21040;-51
2021/07/12 10:59:34;;;;;;;3.05;2.27;;;;;;;31.00;48.63;100524.52;1768952;80;21432;-45
2021/07/12 11:02:05;;;;;;;3.87;3.08;;;;;;;31.04;48.37;100520.27;1692352;82;21812;-45
2021/07/12 11:04:38;;;;;;;3.70;2.90;;;;;;;31.13;48.73;100523.38;1693830;84;21065;-45
2021/07/12 11:07:10;;;;;;;4.20;3.00;;;;;;;31.32;47.48;100516.95;1703027;82;21029;-45
2021/07/12 11:09:50;;;;;;;4.35;2.70;;;;;;;31.32;46.55;100518.36;1706826;84;21063;-51
2021/07/12 11:12:39;;;;;;;3.90;2.33;;;;;;;31.29;46.70;100517.97;1741162;80;21056;-45
2021/07/12 11:15:25;;;;;;;2.83;2.20;;;;;;;31.45;47.16;100519.44;1737250;82;21551;-51
2021/07/12 11:18:10;;;;;;;4.75;2.70;;;;;;;31.66;47.57;100520.59;1729632;81;21512;-44
2021/07/12 11:20:54;;;;;;;3.67;2.70;;;;;;;31.86;48.05;100522.16;1694521;83;20987;-51
2021/07/12 11:23:48;;;;;;;3.02;2.40;;;;;;;32.01;47.30;100526.23;1753873;81;21027;-50
2021/07/12 11:26:29;;;;;;;4.00;3.12;;;;;;;32.01;46.04;100531.27;1755435;81;21517;-45
2021/07/12 11:29:01;;;;;;;2.80;2.25;;;;;;;31.98;46.61;100526.47;1755455;81;21405;-45
2021/07/12 11:31:47;;;;;;;3.10;2.60;;;;;;;32.19;46.57;100530.20;1753209;81;21006;-51
2021/07/12 11:34:22;;;;;;;2.75;2.02;;;;;;;32.40;46.28;100538.37;1691595;84;20904;-51
2021/07/12 11:37:00;;;;;;;2.83;2.52;;;;;;;32.70;46.14;100541.76;1695614;84;21451;-45
2021/07/12 11:39:29;;;;;;;4.90;2.40;;;;;;;32.88;44.62;100544.90;1702944;84;21017;-52
2021/07/12 11:41:56;;;;;;;2.40;2.20;;;;;;;32.98;44.08;100545.32;1771574;79;21061;-52